createdAt,value
2024-03-24T00:05:47.640Z,11.74
2024-03-24T00:17:47.763Z,11.70
2024-03-24T00:29:47.640Z,11.69
2024-03-24T00:41:47.623Z,11.68
2024-03-24T00:53:47.638Z,11.64
2024-03-24T01:05:47.767Z,11.64
2024-03-24T01:17:47.634Z,11.61
2024-03-24T01:29:47.629Z,11.60
2024-03-24T01:41:47.722Z,11.58
2024-03-24T01:53:47.638Z,11.55
2024-03-24T02:05:48.196Z,11.54
2024-03-24T02:17:50.190Z,11.51
2024-03-24T02:29:47.649Z,11.50
2024-03-24T02:41:47.626Z,11.49
2024-03-24T02:53:47.623Z,11.46
2024-03-24T03:05:47.632Z,11.45
2024-03-24T03:17:47.639Z,11.42
2024-03-24T03:29:47.621Z,11.42
2024-03-24T03:41:47.627Z,11.40
2024-03-24T03:53:47.637Z,11.38
2024-03-24T04:05:47.699Z,11.37
2024-03-24T04:17:47.643Z,11.35
2024-03-24T04:29:47.624Z,11.33
2024-03-24T04:41:47.635Z,11.32
2024-03-24T04:53:47.623Z,11.30
2024-03-24T05:05:47.630Z,11.28
2024-03-24T05:17:47.642Z,11.27
2024-03-24T05:29:47.642Z,11.25
2024-03-24T05:41:47.628Z,11.24
2024-03-24T05:53:47.631Z,11.22
2024-03-24T06:05:47.623Z,11.20
2024-03-24T06:17:47.655Z,11.19
2024-03-24T06:29:47.646Z,11.18
2024-03-24T06:41:47.706Z,11.16
2024-03-24T06:53:47.866Z,11.15
2024-03-24T07:05:47.751Z,11.14
2024-03-24T07:17:47.723Z,11.13
2024-03-24T07:29:47.651Z,11.14
2024-03-24T07:41:48.224Z,11.15
2024-03-24T07:53:47.754Z,11.12
2024-03-24T08:05:47.736Z,11.14
2024-03-24T08:17:47.694Z,11.10
2024-03-24T08:29:47.625Z,11.11
2024-03-24T08:41:47.750Z,11.10
2024-03-24T08:53:47.647Z,11.11
2024-03-24T09:05:47.732Z,11.17
2024-03-24T09:17:47.633Z,11.31
2024-03-24T09:29:47.625Z,11.50
2024-03-24T09:41:47.649Z,11.33
2024-03-24T09:53:47.695Z,11.30
2024-03-24T10:05:47.636Z,11.28
2024-03-24T10:17:47.728Z,11.26
2024-03-24T10:29:47.628Z,11.29
2024-03-24T10:41:47.646Z,11.28
2024-03-24T10:53:47.625Z,11.32
2024-03-24T11:05:47.648Z,11.68
2024-03-24T11:17:47.644Z,11.98
2024-03-24T11:29:47.626Z,11.79
2024-03-24T11:41:47.701Z,11.75
2024-03-24T11:53:47.742Z,11.75
2024-03-24T12:05:47.627Z,11.87
2024-03-24T12:17:47.729Z,12.27
2024-03-24T12:29:47.629Z,12.08
2024-03-24T12:41:47.663Z,12.05
2024-03-24T12:53:47.706Z,12.24
2024-03-24T13:05:47.641Z,12.22
2024-03-24T13:17:47.654Z,12.27
2024-03-24T13:29:47.630Z,12.27
2024-03-24T13:41:47.683Z,12.25
2024-03-24T13:53:47.740Z,12.31
2024-03-24T14:05:47.738Z,12.27
2024-03-24T14:17:47.752Z,12.28
2024-03-24T14:29:47.744Z,12.27
2024-03-24T14:41:47.736Z,12.39
2024-03-24T14:53:47.721Z,12.32
2024-03-24T15:05:47.750Z,12.30
2024-03-24T15:17:47.742Z,12.27
2024-03-24T15:29:47.632Z,12.26
2024-03-24T15:41:47.731Z,12.27
2024-03-24T15:53:47.689Z,12.24
2024-03-24T16:05:47.627Z,12.24
2024-03-24T16:17:47.734Z,12.21
2024-03-24T16:29:47.670Z,12.19
2024-03-24T16:41:47.633Z,12.20
2024-03-24T16:53:47.633Z,12.17
2024-03-24T17:05:47.683Z,12.16
2024-03-24T17:17:48.037Z,12.14
2024-03-24T17:29:47.726Z,12.13
2024-03-24T17:41:47.643Z,12.10
2024-03-24T17:53:47.626Z,12.08
2024-03-24T18:05:47.698Z,12.06
2024-03-24T18:17:47.640Z,12.03
2024-03-24T18:29:47.696Z,12.02
2024-03-24T18:41:47.620Z,12.00
2024-03-24T18:53:47.684Z,11.97
2024-03-24T19:05:47.710Z,11.95
2024-03-24T19:17:47.638Z,11.93
2024-03-24T19:29:47.759Z,11.90
2024-03-24T19:41:47.700Z,11.88
2024-03-24T19:53:47.723Z,11.86
2024-03-24T20:05:47.728Z,11.83
2024-03-24T20:17:47.672Z,11.82
2024-03-24T20:29:47.731Z,11.80
2024-03-24T20:41:47.629Z,11.78
2024-03-24T20:53:47.752Z,11.74
2024-03-24T21:05:47.688Z,11.72
2024-03-24T21:17:47.651Z,11.70
2024-03-24T21:29:47.755Z,11.67
2024-03-24T21:41:47.660Z,11.67
2024-03-24T21:53:47.629Z,11.65
2024-03-24T22:05:47.642Z,11.62
2024-03-24T22:17:47.744Z,11.61
2024-03-24T22:29:47.632Z,11.58
2024-03-24T22:41:47.622Z,11.56
2024-03-24T22:53:47.737Z,11.54
2024-03-24T23:05:47.631Z,11.54
2024-03-24T23:17:47.629Z,11.50
2024-03-24T23:29:47.638Z,11.50
2024-03-24T23:41:47.729Z,11.49
2024-03-24T23:53:47.630Z,11.47
